createdAt,value
2018-03-11T00:01:31.561Z,8.98
2018-03-11T00:03:59.122Z,9.10
2018-03-11T00:06:26.642Z,9.07
2018-03-11T00:08:54.938Z,9.12
2018-03-11T00:11:22.485Z,9.09
2018-03-11T00:13:50.008Z,9.03
2018-03-11T00:16:17.536Z,8.97
2018-03-11T00:18:45.385Z,9.01
2018-03-11T00:21:12.910Z,9.01
2018-03-11T00:23:40.454Z,8.95
2018-03-11T00:26:07.989Z,8.98
2018-03-11T00:28:35.501Z,9.06
2018-03-11T00:31:03.029Z,9.07
2018-03-11T00:33:30.555Z,9.00
2018-03-11T00:35:58.170Z,8.96
2018-03-11T00:38:26.326Z,8.93
2018-03-11T00:40:56.462Z,8.95
2018-03-11T00:43:23.983Z,8.95
2018-03-11T00:45:51.503Z,8.86
2018-03-11T00:48:19.028Z,8.88
2018-03-11T00:50:46.567Z,8.79
2018-03-11T00:53:14.080Z,8.92
2018-03-11T00:55:41.606Z,8.85
2018-03-11T00:58:09.201Z,8.86
2018-03-11T01:00:38.462Z,8.85
2018-03-11T01:03:05.980Z,8.85
2018-03-11T01:05:33.695Z,8.82
2018-03-11T01:08:01.221Z,8.88
2018-03-11T01:10:28.758Z,8.83
2018-03-11T01:12:56.284Z,8.77
2018-03-11T01:15:23.814Z,8.78
2018-03-11T01:17:51.401Z,8.82
2018-03-11T01:20:18.923Z,8.78
2018-03-11T01:22:46.547Z,8.80
2018-03-11T01:25:14.063Z,8.76
2018-03-11T01:27:41.599Z,8.77
2018-03-11T01:30:09.121Z,8.87
2018-03-11T01:32:37.330Z,8.79
2018-03-11T01:35:04.855Z,8.84
2018-03-11T01:37:32.376Z,8.85
2018-03-11T01:39:59.898Z,8.87
2018-03-11T01:42:27.414Z,8.85
2018-03-11T01:44:54.931Z,8.74
2018-03-11T01:47:22.440Z,8.74
2018-03-11T01:49:49.963Z,8.75
2018-03-11T01:52:18.565Z,8.81
2018-03-11T01:54:46.085Z,8.75
2018-03-11T01:57:14.538Z,8.76
2018-03-11T01:59:42.092Z,8.73
2018-03-11T02:02:09.950Z,8.71
2018-03-11T02:04:37.478Z,8.80
2018-03-11T02:07:05.827Z,8.75
2018-03-11T02:09:33.356Z,8.81
2018-03-11T02:12:00.888Z,8.75
2018-03-11T02:14:28.765Z,8.67
2018-03-11T02:16:56.537Z,8.70
2018-03-11T02:19:24.068Z,8.63
2018-03-11T02:21:51.586Z,8.60
2018-03-11T02:24:19.116Z,8.58
2018-03-11T02:26:46.639Z,8.63
2018-03-11T02:29:14.157Z,8.45
2018-03-11T02:31:41.674Z,8.49
2018-03-11T02:34:09.203Z,8.49
2018-03-11T02:36:36.715Z,8.46
2018-03-11T02:39:04.239Z,8.39
2018-03-11T02:41:31.762Z,8.43
2018-03-11T02:43:59.289Z,8.43
2018-03-11T02:46:26.805Z,8.46
2018-03-11T02:48:54.328Z,8.45
2018-03-11T02:51:21.847Z,8.49
2018-03-11T02:53:49.366Z,8.43
2018-03-11T02:56:16.894Z,8.36
2018-03-11T02:58:44.410Z,8.37
2018-03-11T03:01:11.957Z,8.28
2018-03-11T03:03:39.477Z,8.28
2018-03-11T03:06:06.994Z,8.33
2018-03-11T03:08:34.506Z,8.36
2018-03-11T03:11:02.018Z,8.25
2018-03-11T03:13:29.619Z,8.28
2018-03-11T03:15:57.143Z,8.21
2018-03-11T03:18:24.658Z,8.05
2018-03-11T03:20:52.189Z,8.09
2018-03-11T03:23:19.710Z,8.16
2018-03-11T03:25:47.235Z,8.05
2018-03-11T03:28:14.758Z,8.02
2018-03-11T03:30:42.274Z,7.96
2018-03-11T03:33:09.795Z,8.07
2018-03-11T03:35:37.317Z,7.98
2018-03-11T03:38:04.834Z,7.97
2018-03-11T03:40:32.361Z,7.94
2018-03-11T03:42:59.892Z,7.94
2018-03-11T03:45:27.412Z,7.96
2018-03-11T03:47:54.931Z,8.00
2018-03-11T03:50:22.459Z,7.96
2018-03-11T03:52:49.981Z,7.91
2018-03-11T03:55:17.522Z,7.83
2018-03-11T03:57:45.038Z,7.78
2018-03-11T04:00:12.558Z,7.83
2018-03-11T04:02:40.069Z,7.79
2018-03-11T04:05:07.592Z,7.76
2018-03-11T04:07:35.105Z,7.74
2018-03-11T04:10:02.613Z,7.82
2018-03-11T04:12:30.129Z,7.84
2018-03-11T04:14:57.649Z,7.84
2018-03-11T04:17:25.174Z,7.82
2018-03-11T04:19:52.690Z,7.88
2018-03-11T04:22:20.611Z,7.76
2018-03-11T04:24:48.138Z,7.79
2018-03-11T04:27:15.660Z,7.82
2018-03-11T04:29:43.181Z,7.78
2018-03-11T04:32:10.702Z,7.82
2018-03-11T04:34:38.250Z,7.81
2018-03-11T04:37:05.760Z,7.76
2018-03-11T04:39:34.268Z,7.74
2018-03-11T04:42:01.791Z,7.78
2018-03-11T04:44:29.302Z,7.70
2018-03-11T04:46:56.828Z,7.72
2018-03-11T04:49:24.349Z,7.69
2018-03-11T04:51:51.863Z,7.66
2018-03-11T04:54:20.080Z,7.75
2018-03-11T04:56:47.599Z,7.72
2018-03-11T04:59:15.122Z,7.62
2018-03-11T05:01:42.639Z,7.62
2018-03-11T05:04:10.480Z,7.64
2018-03-11T05:06:38.009Z,7.68
2018-03-11T05:09:05.522Z,7.73
2018-03-11T05:11:33.037Z,7.68
2018-03-11T05:14:00.552Z,7.65
2018-03-11T05:16:28.068Z,7.70
2018-03-11T05:18:55.582Z,7.67
2018-03-11T05:21:23.109Z,7.70
2018-03-11T05:23:50.635Z,7.64
2018-03-11T05:26:18.150Z,7.69
2018-03-11T05:28:45.672Z,7.69
2018-03-11T05:31:13.199Z,7.73
2018-03-11T05:33:40.726Z,7.75
2018-03-11T05:36:08.262Z,7.67
2018-03-11T05:38:35.798Z,7.64
2018-03-11T05:41:03.305Z,7.79
2018-03-11T05:43:30.818Z,7.79
2018-03-11T05:45:59.362Z,7.84
2018-03-11T05:48:28.007Z,7.86
2018-03-11T05:50:55.525Z,7.86
2018-03-11T05:53:23.037Z,7.81
2018-03-11T05:55:50.570Z,7.93
2018-03-11T05:58:18.636Z,7.96
2018-03-11T06:00:46.164Z,8.11
2018-03-11T06:03:13.685Z,8.13
2018-03-11T06:05:41.206Z,8.05
2018-03-11T06:08:08.729Z,8.10
2018-03-11T06:10:37.314Z,8.12
2018-03-11T06:13:04.805Z,8.34
2018-03-11T06:15:32.337Z,8.55
2018-03-11T06:17:59.854Z,8.54
2018-03-11T06:20:27.380Z,8.75
2018-03-11T06:22:54.898Z,8.83
2018-03-11T06:25:22.431Z,8.95
2018-03-11T06:27:50.753Z,8.98
2018-03-11T06:30:18.275Z,8.98
2018-03-11T06:32:46.857Z,9.05
2018-03-11T06:35:14.374Z,9.09
2018-03-11T06:37:41.899Z,9.28
2018-03-11T06:40:10.231Z,9.30
2018-03-11T06:42:37.754Z,9.33
2018-03-11T06:45:05.271Z,9.01
2018-03-11T06:47:32.795Z,9.13
2018-03-11T06:50:01.174Z,9.03
2018-03-11T06:52:28.693Z,9.01
2018-03-11T06:54:56.243Z,9.14
2018-03-11T06:57:23.765Z,8.95
2018-03-11T06:59:51.289Z,9.19
2018-03-11T07:02:19.020Z,9.02
2018-03-11T07:04:46.536Z,8.88
2018-03-11T07:07:14.065Z,9.06
2018-03-11T07:09:41.970Z,8.77
2018-03-11T07:12:10.813Z,9.00
2018-03-11T07:14:38.379Z,9.09
2018-03-11T07:17:05.910Z,9.29
2018-03-11T07:19:33.442Z,9.38
2018-03-11T07:22:00.966Z,9.57
2018-03-11T07:24:28.491Z,9.41
2018-03-11T07:26:56.784Z,9.79
2018-03-11T07:29:24.300Z,10.01
2018-03-11T07:31:52.190Z,10.22
2018-03-11T07:34:19.721Z,10.43
2018-03-11T07:36:47.689Z,11.11
2018-03-11T07:39:15.204Z,11.60
2018-03-11T07:41:43.626Z,12.43
2018-03-11T07:44:11.179Z,13.75
2018-03-11T07:46:39.740Z,13.65
2018-03-11T07:49:07.472Z,15.00
2018-03-11T07:51:34.991Z,14.10
2018-03-11T07:54:02.541Z,15.53
2018-03-11T07:56:30.078Z,16.12
2018-03-11T07:58:58.457Z,15.99
2018-03-11T08:01:26.018Z,16.26
2018-03-11T08:03:53.546Z,15.07
2018-03-11T08:06:21.071Z,16.49
2018-03-11T08:08:48.650Z,17.92
2018-03-11T08:11:16.200Z,18.99
2018-03-11T08:13:43.719Z,17.58
2018-03-11T08:16:11.246Z,20.41
2018-03-11T08:18:39.382Z,18.43
2018-03-11T08:21:06.939Z,20.66
2018-03-11T08:23:35.255Z,21.88
2018-03-11T08:26:02.790Z,21.62
2018-03-11T08:28:32.124Z,21.76
2018-03-11T08:30:59.645Z,23.19
2018-03-11T08:33:30.223Z,24.51
2018-03-11T08:35:57.803Z,24.11
2018-03-11T08:38:25.424Z,24.41
2018-03-11T08:40:52.946Z,22.84
2018-03-11T08:43:20.680Z,23.48
2018-03-11T08:45:48.207Z,25.37
2018-03-11T08:48:15.747Z,25.56
2018-03-11T08:50:43.290Z,24.02
2018-03-11T08:53:11.332Z,25.50
2018-03-11T08:55:38.853Z,26.08
2018-03-11T08:58:06.388Z,23.98
2018-03-11T09:00:33.979Z,24.62
2018-03-11T09:03:02.006Z,25.98
2018-03-11T09:05:30.897Z,26.70
2018-03-11T09:07:58.426Z,27.42
2018-03-11T09:10:26.116Z,28.60
2018-03-11T09:12:53.551Z,27.91
2018-03-11T09:15:21.110Z,29.24
2018-03-11T09:17:48.637Z,30.38
2018-03-11T09:20:16.337Z,29.95
2018-03-11T09:22:44.799Z,28.02
2018-03-11T09:25:12.730Z,22.45
2018-03-11T09:27:40.248Z,24.04
2018-03-11T09:30:11.453Z,21.12
2018-03-11T09:32:39.421Z,24.18
2018-03-11T09:35:07.012Z,26.63
2018-03-11T09:37:35.146Z,28.63
2018-03-11T09:40:02.688Z,28.83
2018-03-11T09:42:30.226Z,29.63
2018-03-11T09:44:59.051Z,28.72
2018-03-11T09:47:30.289Z,24.80
2018-03-11T09:49:57.860Z,28.74
2018-03-11T09:52:25.432Z,25.07
2018-03-11T09:54:55.286Z,28.59
2018-03-11T09:57:23.806Z,31.15
2018-03-11T09:59:51.576Z,30.30
2018-03-11T10:02:20.741Z,29.48
2018-03-11T10:04:50.512Z,26.89
2018-03-11T10:07:19.530Z,30.35
2018-03-11T10:09:47.901Z,28.65
2018-03-11T10:12:15.473Z,25.60
2018-03-11T10:14:44.517Z,29.98
2018-03-11T10:17:12.110Z,30.53
2018-03-11T10:19:40.334Z,25.83
2018-03-11T10:22:07.864Z,24.15
2018-03-11T10:24:36.990Z,24.66
2018-03-11T10:27:05.395Z,22.39
2018-03-11T10:29:32.912Z,22.88
2018-03-11T10:32:01.386Z,22.84
2018-03-11T10:34:30.211Z,20.48
2018-03-11T10:36:57.831Z,18.98
2018-03-11T10:39:28.726Z,19.68
2018-03-11T10:41:57.272Z,18.86
2018-03-11T10:44:24.958Z,19.26
2018-03-11T10:46:53.263Z,19.36
2018-03-11T10:49:21.752Z,18.95
2018-03-11T10:51:49.274Z,18.83
2018-03-11T10:54:18.325Z,19.84
2018-03-11T10:56:46.366Z,19.68
2018-03-11T10:59:13.886Z,18.28
2018-03-11T11:02:01.826Z,18.52
2018-03-11T11:07:29.946Z,18.26
2018-03-11T11:09:57.506Z,18.89
2018-03-11T11:12:25.029Z,19.40
2018-03-11T11:14:53.304Z,18.43
2018-03-11T11:17:20.822Z,17.70
2018-03-11T11:19:48.344Z,17.42
2018-03-11T11:22:15.865Z,17.67
2018-03-11T11:24:43.374Z,17.56
2018-03-11T11:27:10.888Z,17.75
2018-03-11T11:29:38.402Z,17.96
2018-03-11T11:32:05.922Z,17.86
2018-03-11T11:34:33.438Z,18.17
2018-03-11T11:37:00.966Z,18.02
2018-03-11T11:39:28.487Z,18.21
2018-03-11T11:41:56.004Z,18.38
2018-03-11T11:44:23.528Z,18.54
2018-03-11T11:46:51.054Z,17.44
2018-03-11T11:49:18.577Z,17.18
2018-03-11T11:51:46.167Z,16.86
2018-03-11T11:54:13.695Z,17.07
2018-03-11T11:56:41.221Z,17.20
2018-03-11T11:59:40.322Z,16.51
2018-03-11T12:02:07.888Z,16.73
2018-03-11T12:04:35.447Z,16.65
2018-03-11T12:07:02.982Z,16.38
2018-03-11T12:09:30.522Z,16.64
2018-03-11T12:11:59.061Z,16.08
2018-03-11T12:14:26.606Z,16.45
2018-03-11T12:16:54.759Z,16.46
2018-03-11T12:19:22.393Z,16.27
2018-03-11T12:21:49.996Z,16.33
2018-03-11T12:24:17.542Z,16.38
2018-03-11T12:26:45.056Z,16.50
2018-03-11T12:29:12.600Z,16.63
2018-03-11T12:31:40.209Z,16.79
2018-03-11T12:34:07.721Z,16.68
2018-03-11T12:36:35.232Z,16.93
2018-03-11T12:39:02.741Z,16.62
2018-03-11T12:41:30.283Z,16.43
2018-03-11T12:43:57.801Z,16.43
2018-03-11T12:46:25.349Z,16.60
2018-03-11T12:48:52.864Z,16.73
2018-03-11T12:51:20.393Z,16.98
2018-03-11T12:53:47.901Z,17.04
2018-03-11T12:56:15.451Z,17.03
2018-03-11T12:58:42.972Z,17.17
2018-03-11T13:01:10.487Z,17.16
2018-03-11T13:03:38.010Z,17.00
2018-03-11T13:06:05.534Z,17.10
2018-03-11T13:08:33.062Z,16.80
2018-03-11T13:11:00.581Z,16.78
2018-03-11T13:13:28.209Z,17.11
2018-03-11T13:15:55.782Z,17.07
2018-03-11T13:18:23.310Z,17.11
2018-03-11T13:21:02.620Z,17.19
2018-03-11T13:23:30.146Z,17.34
2018-03-11T13:25:57.669Z,17.31
2018-03-11T13:28:37.074Z,16.98
2018-03-11T13:31:04.664Z,16.66
2018-03-11T13:33:43.832Z,16.93
2018-03-11T13:36:11.350Z,16.76
2018-03-11T13:38:50.699Z,17.19
2018-03-11T13:41:18.275Z,16.93
2018-03-11T13:43:45.956Z,16.76
2018-03-11T13:46:25.509Z,16.97
2018-03-11T13:48:53.346Z,16.92
2018-03-11T13:51:32.706Z,16.85
2018-03-11T13:54:00.278Z,16.87
2018-03-11T13:56:27.798Z,17.00
2018-03-11T13:58:55.311Z,16.94
2018-03-11T14:01:22.845Z,16.90
2018-03-11T14:03:50.361Z,16.96
2018-03-11T14:06:17.870Z,16.86
2018-03-11T14:08:45.384Z,16.99
2018-03-11T14:11:12.906Z,17.07
2018-03-11T14:13:40.446Z,17.08
2018-03-11T14:16:07.974Z,16.97
2018-03-11T14:18:35.521Z,17.07
2018-03-11T14:21:03.032Z,17.17
2018-03-11T14:23:30.553Z,17.13
2018-03-11T14:25:58.097Z,17.22
2018-03-11T14:28:25.601Z,17.28
2018-03-11T14:30:53.126Z,17.10
2018-03-11T14:33:20.688Z,17.09
2018-03-11T14:35:48.710Z,16.91
2018-03-11T14:38:16.229Z,16.96
2018-03-11T14:40:43.888Z,16.96
2018-03-11T14:43:11.649Z,16.96
2018-03-11T14:45:39.179Z,16.96
2018-03-11T14:48:06.696Z,17.00
2018-03-11T14:50:34.324Z,17.01
2018-03-11T14:53:01.840Z,17.08
2018-03-11T14:55:29.376Z,16.93
2018-03-11T14:57:56.899Z,17.01
2018-03-11T15:00:24.431Z,17.09
2018-03-11T15:02:51.946Z,17.12
2018-03-11T15:05:19.469Z,17.09
2018-03-11T15:07:46.977Z,16.95
2018-03-11T15:10:14.495Z,16.94
2018-03-11T15:12:42.130Z,16.93
2018-03-11T15:15:09.670Z,16.91
2018-03-11T15:17:37.281Z,16.92
2018-03-11T15:20:04.799Z,16.87
2018-03-11T15:22:32.315Z,16.85
2018-03-11T15:24:59.833Z,16.88
2018-03-11T15:27:27.345Z,16.87
2018-03-11T15:29:54.860Z,16.85
2018-03-11T15:32:22.436Z,16.83
2018-03-11T15:34:49.954Z,16.79
2018-03-11T15:37:17.471Z,16.86
2018-03-11T15:39:45.002Z,16.82
2018-03-11T15:42:12.541Z,16.74
2018-03-11T15:44:40.082Z,16.76
2018-03-11T15:47:07.616Z,16.73
2018-03-11T15:49:35.203Z,16.70
2018-03-11T15:52:02.714Z,16.71
2018-03-11T15:54:30.374Z,16.73
2018-03-11T15:56:57.910Z,16.71
2018-03-11T15:59:25.446Z,16.64
2018-03-11T16:01:52.952Z,16.59
2018-03-11T16:04:20.492Z,16.51
2018-03-11T16:06:48.072Z,16.48
2018-03-11T16:09:15.589Z,16.47
2018-03-11T16:11:43.181Z,16.43
2018-03-11T16:14:10.740Z,16.38
2018-03-11T16:16:38.244Z,16.37
2018-03-11T16:19:05.876Z,16.33
2018-03-11T16:21:33.434Z,16.33
2018-03-11T16:24:00.958Z,16.31
2018-03-11T16:26:28.548Z,16.27
2018-03-11T16:28:56.078Z,16.26
2018-03-11T16:31:23.674Z,16.25
2018-03-11T16:33:51.191Z,16.20
2018-03-11T16:36:18.724Z,16.15
2018-03-11T16:38:46.269Z,16.10
2018-03-11T16:41:13.796Z,16.07
2018-03-11T16:43:41.366Z,16.05
2018-03-11T16:46:08.944Z,16.01
2018-03-11T16:48:36.451Z,15.98
2018-03-11T16:51:03.979Z,15.90
2018-03-11T16:53:31.508Z,15.85
2018-03-11T16:55:59.035Z,15.81
2018-03-11T16:58:26.573Z,15.74
2018-03-11T17:00:54.092Z,15.69
2018-03-11T17:03:21.612Z,15.70
2018-03-11T17:05:49.136Z,15.64
2018-03-11T17:08:16.655Z,15.57
2018-03-11T17:10:44.173Z,15.55
2018-03-11T17:13:11.694Z,15.51
2018-03-11T17:15:39.222Z,15.50
2018-03-11T17:18:06.754Z,15.48
2018-03-11T17:20:34.368Z,15.41
2018-03-11T17:23:01.881Z,15.39
2018-03-11T17:25:29.439Z,15.39
2018-03-11T17:27:56.961Z,15.34
2018-03-11T17:30:24.481Z,15.33
2018-03-11T17:32:51.993Z,15.31
2018-03-11T17:35:19.512Z,15.27
2018-03-11T17:37:47.033Z,15.23
2018-03-11T17:40:14.562Z,15.16
2018-03-11T17:42:42.098Z,15.17
2018-03-11T17:45:09.616Z,15.10
2018-03-11T17:47:37.141Z,15.07
2018-03-11T17:50:04.660Z,15.08
2018-03-11T17:52:32.177Z,15.01
2018-03-11T17:54:59.780Z,15.03
2018-03-11T17:57:27.306Z,15.00
2018-03-11T17:59:54.831Z,15.00
2018-03-11T18:02:22.342Z,14.95
2018-03-11T18:04:49.895Z,14.91
2018-03-11T18:07:17.418Z,14.83
2018-03-11T18:09:45.053Z,14.76
2018-03-11T18:12:12.572Z,14.77
2018-03-11T18:14:40.137Z,14.71
2018-03-11T18:17:07.688Z,14.65
2018-03-11T18:19:35.566Z,14.62
2018-03-11T18:22:04.125Z,14.58
2018-03-11T18:24:31.656Z,14.53
2018-03-11T18:26:59.170Z,14.54
2018-03-11T18:29:26.681Z,14.50
2018-03-11T18:31:54.216Z,14.49
2018-03-11T18:34:21.755Z,14.48
2018-03-11T18:36:49.268Z,14.46
2018-03-11T18:39:16.793Z,14.42
2018-03-11T18:41:44.309Z,14.39
2018-03-11T18:44:11.929Z,14.38
2018-03-11T18:46:39.458Z,14.41
2018-03-11T18:49:06.989Z,14.36
2018-03-11T18:51:34.556Z,14.35
2018-03-11T18:54:02.091Z,14.30
2018-03-11T18:56:29.615Z,14.29
2018-03-11T18:58:57.171Z,14.27
2018-03-11T19:01:24.701Z,14.28
2018-03-11T19:03:52.291Z,14.20
2018-03-11T19:06:19.813Z,14.18
2018-03-11T19:08:47.354Z,14.17
2018-03-11T19:11:14.976Z,14.09
2018-03-11T19:13:42.520Z,14.05
2018-03-11T19:16:10.044Z,14.02
2018-03-11T19:18:37.580Z,14.03
2018-03-11T19:21:05.110Z,13.98
2018-03-11T19:23:32.693Z,13.95
2018-03-11T19:26:01.216Z,13.92
2018-03-11T19:28:28.834Z,13.91
2018-03-11T19:30:56.354Z,13.88
2018-03-11T19:33:23.897Z,13.85
2018-03-11T19:35:51.434Z,13.79
2018-03-11T19:38:18.969Z,13.77
2018-03-11T19:40:46.524Z,13.71
2018-03-11T19:43:14.045Z,13.66
2018-03-11T19:45:41.580Z,13.60
2018-03-11T19:48:09.118Z,13.57
2018-03-11T19:50:36.647Z,13.52
2018-03-11T19:53:04.209Z,13.51
2018-03-11T19:55:31.734Z,13.49
2018-03-11T19:57:59.248Z,13.45
2018-03-11T20:00:26.772Z,13.40
2018-03-11T20:02:54.344Z,13.38
2018-03-11T20:05:21.871Z,13.34
2018-03-11T20:07:49.397Z,13.30
2018-03-11T20:10:16.922Z,13.27
2018-03-11T20:12:44.450Z,13.23
2018-03-11T20:15:11.979Z,13.19
2018-03-11T20:17:39.515Z,13.17
2018-03-11T20:20:07.857Z,13.14
2018-03-11T20:22:35.381Z,13.14
2018-03-11T20:25:02.943Z,13.08
2018-03-11T20:27:30.462Z,13.07
2018-03-11T20:29:58.014Z,13.07
2018-03-11T20:32:25.534Z,13.04
2018-03-11T20:34:53.111Z,13.06
2018-03-11T20:37:20.630Z,13.05
2018-03-11T20:39:48.149Z,13.02
2018-03-11T20:42:15.695Z,12.97
2018-03-11T20:44:43.230Z,12.94
2018-03-11T20:47:10.753Z,12.90
2018-03-11T20:49:38.276Z,12.84
2018-03-11T20:52:05.793Z,12.80
2018-03-11T20:54:33.310Z,12.74
2018-03-11T20:57:00.841Z,12.73
2018-03-11T20:59:28.358Z,12.66
2018-03-11T21:01:55.886Z,12.63
2018-03-11T21:04:23.454Z,12.60
2018-03-11T21:06:50.974Z,12.56
2018-03-11T21:09:18.539Z,12.52
2018-03-11T21:11:46.128Z,12.44
2018-03-11T21:14:13.645Z,12.43
2018-03-11T21:16:41.164Z,12.39
2018-03-11T21:19:08.691Z,12.35
2018-03-11T21:21:36.216Z,12.32
2018-03-11T21:24:03.738Z,12.31
2018-03-11T21:26:31.279Z,12.30
2018-03-11T21:28:58.843Z,12.27
2018-03-11T21:31:26.397Z,12.28
2018-03-11T21:33:53.936Z,12.27
2018-03-11T21:36:21.463Z,12.22
2018-03-11T21:38:48.992Z,12.22
2018-03-11T21:41:16.641Z,12.22
2018-03-11T21:43:44.301Z,12.20
2018-03-11T21:46:11.866Z,12.15
2018-03-11T21:48:39.395Z,12.15
2018-03-11T21:51:06.932Z,12.15
2018-03-11T21:53:34.476Z,12.09
2018-03-11T21:56:02.114Z,12.04
2018-03-11T21:58:29.693Z,12.05
2018-03-11T22:00:57.215Z,12.00
2018-03-11T22:03:24.788Z,11.95
2018-03-11T22:05:52.303Z,11.94
2018-03-11T22:08:19.829Z,11.89
2018-03-11T22:10:47.352Z,11.88
2018-03-11T22:13:14.925Z,11.83
2018-03-11T22:15:42.454Z,11.81
2018-03-11T22:18:09.986Z,11.81
2018-03-11T22:20:37.563Z,11.75
2018-03-11T22:23:05.090Z,11.72
2018-03-11T22:25:32.621Z,11.68
2018-03-11T22:28:00.146Z,11.69
2018-03-11T22:30:27.667Z,11.61
2018-03-11T22:32:55.201Z,11.61
2018-03-11T22:35:22.718Z,11.55
2018-03-11T22:37:50.255Z,11.53
2018-03-11T22:40:17.782Z,11.53
2018-03-11T22:42:45.308Z,11.45
2018-03-11T22:45:12.829Z,11.43
2018-03-11T22:47:40.360Z,11.41
2018-03-11T22:50:07.881Z,11.38
2018-03-11T22:52:35.474Z,11.34
2018-03-11T22:55:03.112Z,11.33
2018-03-11T22:57:30.638Z,11.31
2018-03-11T22:59:58.182Z,11.30
2018-03-11T23:02:25.708Z,11.24
2018-03-11T23:04:53.241Z,11.17
2018-03-11T23:07:20.758Z,11.16
2018-03-11T23:09:48.294Z,11.13
2018-03-11T23:12:15.821Z,11.10
2018-03-11T23:14:43.349Z,11.07
2018-03-11T23:17:10.973Z,11.07
2018-03-11T23:19:38.502Z,11.02
2018-03-11T23:22:06.038Z,11.02
2018-03-11T23:24:33.572Z,10.99
2018-03-11T23:27:01.214Z,10.95
2018-03-11T23:29:28.771Z,10.93
2018-03-11T23:31:56.408Z,10.90
2018-03-11T23:34:23.960Z,10.90
2018-03-11T23:36:51.519Z,10.88
2018-03-11T23:39:19.070Z,10.83
2018-03-11T23:41:46.594Z,10.82
2018-03-11T23:44:14.128Z,10.83
2018-03-11T23:46:41.691Z,10.79
2018-03-11T23:49:09.228Z,10.73
2018-03-11T23:51:36.743Z,10.73
2018-03-11T23:54:04.422Z,10.71
2018-03-11T23:56:31.969Z,10.69
2018-03-11T23:58:59.597Z,10.66
